Time;durP1;ratioP1;P1;durP2;ratioP2;P2;SDS_P1;SDS_P2;PMS_P1;PMS_P2;Temp;Humidity;BMP_temperature;BMP_pressure;BME280_temperature;BME280_humidity;BME280_pressure;Samples;Min_cycle;Max_cycle;Signal;HPM_P1;HPM_P2
2022/09/01 00:02:18;;;;;;;2.38;0.98;;;22.70;50.50;;;;;;5075607;28;20174;-67
2022/09/01 00:04:44;;;;;;;0.95;0.80;;;22.70;50.50;;;;;;5074537;28;20190;-67
2022/09/01 00:07:10;;;;;;;1.73;0.90;;;22.70;50.60;;;;;;5075468;28;20162;-67
2022/09/01 00:09:37;;;;;;;2.38;0.80;;;22.70;50.60;;;;;;5075114;28;20284;-67
2022/09/01 00:12:07;;;;;;;1.40;0.93;;;22.70;50.50;;;;;;5074562;28;20182;-67
2022/09/01 00:14:34;;;;;;;1.30;0.93;;;22.70;50.50;;;;;;5075329;28;20178;-67
2022/09/01 00:17:02;;;;;;;1.23;0.90;;;22.70;50.60;;;;;;5074969;28;20189;-68
2022/09/01 00:19:28;;;;;;;1.48;0.70;;;22.70;50.70;;;;;;5074426;28;20202;-67
2022/09/01 00:21:54;;;;;;;1.27;0.77;;;22.70;50.50;;;;;;5074854;28;20224;-67
2022/09/01 00:24:19;;;;;;;1.63;0.77;;;22.70;50.60;;;;;;5074644;28;20217;-67
2022/09/01 00:26:45;;;;;;;1.40;0.80;;;22.70;50.50;;;;;;5074122;28;20220;-67
2022/09/01 00:29:10;;;;;;;0.70;0.70;;;22.70;50.60;;;;;;5075188;28;20270;-66
2022/09/01 00:31:37;;;;;;;0.70;0.70;;;22.70;50.50;;;;;;5074713;28;20199;-66
2022/09/01 00:34:03;;;;;;;0.93;0.70;;;22.70;50.50;;;;;;5073857;28;20177;-66
2022/09/01 00:36:28;;;;;;;1.25;0.90;;;22.70;50.60;;;;;;5074625;28;20257;-67
2022/09/01 00:38:54;;;;;;;1.95;0.73;;;22.70;50.60;;;;;;5073669;28;20258;-67
2022/09/01 00:41:21;;;;;;;1.35;1.00;;;22.70;50.50;;;;;;5074991;28;20262;-67
2022/09/01 00:43:51;;;;;;;1.67;0.57;;;22.60;50.60;;;;;;5074352;28;20609;-67
2022/09/01 00:46:22;;;;;;;2.42;0.70;;;22.60;50.50;;;;;;5073896;28;20179;-68
2022/09/01 00:49:02;;;;;;;0.77;0.77;;;22.60;50.70;;;;;;5074378;28;20617;-67
2022/09/01 00:51:27;;;;;;;1.42;1.10;;;22.60;50.60;;;;;;5071772;28;20606;-66
2022/09/01 00:53:54;;;;;;;1.23;1.10;;;22.60;50.50;;;;;;5073740;28;20662;-66
2022/09/01 00:56:20;;;;;;;1.10;1.00;;;22.60;50.70;;;;;;5070860;28;20181;-67
2022/09/01 00:58:46;;;;;;;1.75;1.13;;;22.60;50.70;;;;;;5073905;28;20166;-68
2022/09/01 01:01:11;;;;;;;0.85;0.85;;;22.60;50.60;;;;;;5073905;28;20177;-67
2022/09/01 01:03:40;;;;;;;1.42;0.88;;;22.60;50.50;;;;;;5074148;28;20185;-67
2022/09/01 01:06:07;;;;;;;1.27;0.80;;;22.60;50.70;;;;;;5074009;28;20636;-67
2022/09/01 01:08:33;;;;;;;2.05;1.10;;;22.60;50.70;;;;;;5055788;28;20163;-66
2022/09/01 01:11:05;;;;;;;0.80;0.80;;;22.60;50.60;;;;;;5056357;28;20235;-66
2022/09/01 01:13:35;;;;;;;2.50;1.00;;;22.60;50.60;;;;;;5074175;28;20216;-67
2022/09/01 01:16:02;;;;;;;1.80;0.80;;;22.60;50.60;;;;;;5073248;28;20162;-67
2022/09/01 01:18:27;;;;;;;1.10;1.00;;;22.60;50.60;;;;;;5073830;28;20312;-67
2022/09/01 01:23:53;;;;;;;1.13;0.73;;;22.60;50.50;;;;;;5055706;28;20252;-67
2022/09/01 01:26:19;;;;;;;1.80;0.90;;;22.50;50.60;;;;;;5052571;28;20185;-66
2022/09/01 01:28:45;;;;;;;2.05;1.17;;;22.50;50.40;;;;;;5072770;28;20261;-66
2022/09/01 01:31:13;;;;;;;0.82;0.80;;;22.60;50.50;;;;;;5073668;28;20166;-67
2022/09/01 01:33:47;;;;;;;1.23;0.95;;;22.50;50.40;;;;;;5073677;28;20174;-66
2022/09/01 01:36:15;;;;;;;2.85;0.80;;;22.50;50.40;;;;;;5070427;28;20544;-67
2022/09/01 01:38:42;;;;;;;1.38;1.00;;;22.50;50.40;;;;;;5073512;28;20171;-67
2022/09/01 01:41:09;;;;;;;0.85;0.85;;;22.50;50.40;;;;;;5073358;28;20219;-67
2022/09/01 01:43:36;;;;;;;1.15;1.00;;;22.50;50.50;;;;;;5072726;28;20180;-68
2022/09/01 01:46:04;;;;;;;0.82;0.70;;;22.50;50.40;;;;;;5073423;28;20179;-68
2022/09/01 01:48:33;;;;;;;2.17;1.05;;;22.50;50.40;;;;;;5052188;28;20182;-67
2022/09/01 01:50:59;;;;;;;1.92;1.00;;;22.50;50.40;;;;;;5072683;28;20572;-67
2022/09/01 01:53:25;;;;;;;1.88;1.20;;;22.50;50.40;;;;;;5073256;28;20179;-67
2022/09/01 01:55:50;;;;;;;1.48;1.10;;;22.50;50.50;;;;;;5072803;28;20277;-67
2022/09/01 01:58:18;;;;;;;1.17;0.90;;;22.50;50.50;;;;;;5072688;28;20594;-68
2022/09/01 02:00:45;;;;;;;1.85;0.98;;;22.40;50.40;;;;;;5072729;28;20240;-67
2022/09/01 02:03:11;;;;;;;3.42;1.23;;;22.50;50.40;;;;;;5073078;28;20641;-68
2022/09/01 02:05:37;;;;;;;0.95;0.75;;;22.50;50.50;;;;;;5072202;28;20232;-67
2022/09/01 02:08:07;;;;;;;3.70;1.02;;;22.50;50.50;;;;;;5072935;28;20586;-67
2022/09/01 02:10:35;;;;;;;1.23;0.75;;;22.50;50.40;;;;;;5072111;28;20208;-67
2022/09/01 02:13:06;;;;;;;2.75;1.20;;;22.50;50.50;;;;;;5072572;28;20546;-67
2022/09/01 02:15:37;;;;;;;1.33;0.93;;;22.50;50.40;;;;;;5072689;28;20621;-68
2022/09/01 02:18:03;;;;;;;1.10;1.00;;;22.50;50.50;;;;;;5072133;28;20166;-68
2022/09/01 02:20:28;;;;;;;1.20;0.90;;;22.50;50.40;;;;;;5072862;28;20206;-68
2022/09/01 02:22:54;;;;;;;1.60;0.88;;;22.40;50.50;;;;;;5072592;28;20166;-68
2022/09/01 02:25:21;;;;;;;1.65;1.08;;;22.40;50.70;;;;;;5071801;28;20253;-68
2022/09/01 02:27:54;;;;;;;2.35;0.88;;;22.50;50.60;;;;;;5072698;28;20541;-67
2022/09/01 02:30:21;;;;;;;3.53;1.08;;;22.40;50.50;;;;;;5072971;28;20173;-67
2022/09/01 02:32:46;;;;;;;3.33;1.00;;;22.40;50.40;;;;;;5068102;28;20170;-67
2022/09/01 02:35:12;;;;;;;1.52;0.90;;;22.40;50.50;;;;;;5072676;28;20304;-67
2022/09/01 02:37:38;;;;;;;0.73;0.73;;;22.40;50.60;;;;;;5072523;28;20253;-67
2022/09/01 02:40:05;;;;;;;1.10;1.00;;;22.40;50.60;;;;;;5071424;28;20648;-68
2022/09/01 02:42:31;;;;;;;1.00;0.90;;;22.40;50.50;;;;;;5072470;28;20170;-67
2022/09/01 02:44:57;;;;;;;0.95;0.82;;;22.40;50.40;;;;;;5072301;28;20503;-68
2022/09/01 02:47:26;;;;;;;3.40;1.13;;;22.40;50.50;;;;;;5071710;28;20166;-68
2022/09/01 02:49:52;;;;;;;1.20;0.88;;;22.40;50.50;;;;;;5072292;28;20613;-68
2022/09/01 02:52:19;;;;;;;1.25;1.17;;;22.40;50.50;;;;;;5072256;28;20180;-67
2022/09/01 02:54:47;;;;;;;2.08;1.10;;;22.40;50.50;;;;;;5071612;28;20175;-67
2022/09/01 02:57:13;;;;;;;0.90;0.90;;;22.40;50.60;;;;;;5072568;28;20175;-67
2022/09/01 02:59:40;;;;;;;1.88;1.02;;;22.30;50.40;;;;;;5071459;28;20198;-68
2022/09/01 03:02:07;;;;;;;1.05;0.95;;;22.40;50.50;;;;;;5072243;28;20205;-68
2022/09/01 03:04:33;;;;;;;0.93;0.88;;;22.40;50.50;;;;;;5072384;28;20185;-68
2022/09/01 03:06:59;;;;;;;0.70;0.70;;;22.30;50.40;;;;;;5071333;28;20171;-67
2022/09/01 03:09:25;;;;;;;1.75;0.80;;;22.30;50.40;;;;;;5072306;28;20257;-67
2022/09/01 03:11:51;;;;;;;0.95;0.85;;;22.30;50.30;;;;;;5071934;28;20255;-66
2022/09/01 03:14:17;;;;;;;0.95;0.93;;;22.30;50.30;;;;;;5067842;28;20185;-67
2022/09/01 03:16:43;;;;;;;2.67;1.13;;;22.30;50.40;;;;;;5072186;28;20166;-68
2022/09/01 03:19:10;;;;;;;1.98;0.93;;;22.30;50.20;;;;;;5071901;28;20660;-68
2022/09/01 03:21:38;;;;;;;1.02;0.85;;;22.30;50.30;;;;;;5071251;28;20178;-68
2022/09/01 03:24:04;;;;;;;5.25;1.13;;;22.30;50.00;;;;;;5073520;28;20250;-68
2022/09/01 03:26:30;;;;;;;4.43;1.00;;;22.30;50.30;;;;;;5076323;28;20600;-67
2022/09/01 03:28:55;;;;;;;1.95;0.85;;;22.30;50.20;;;;;;5071381;28;20625;-67
2022/09/01 03:31:21;;;;;;;1.17;1.05;;;22.30;50.20;;;;;;5076063;28;20181;-67
2022/09/01 03:33:46;;;;;;;1.10;1.00;;;22.30;50.20;;;;;;5075733;28;20174;-66
2022/09/01 03:36:17;;;;;;;1.85;0.82;;;22.20;50.20;;;;;;5075148;28;20178;-67
2022/09/01 03:38:47;;;;;;;1.38;1.02;;;22.30;50.20;;;;;;5073015;28;20182;-68
2022/09/01 03:41:13;;;;;;;2.33;1.02;;;22.30;50.00;;;;;;5075942;28;20190;-68
2022/09/01 03:43:38;;;;;;;1.63;1.08;;;22.20;50.20;;;;;;5075172;28;20170;-68
2022/09/01 03:46:04;;;;;;;1.33;1.08;;;22.20;50.10;;;;;;5075663;28;20170;-67
2022/09/01 03:48:30;;;;;;;1.25;1.15;;;22.20;50.00;;;;;;5075809;28;20266;-68
2022/09/01 03:51:01;;;;;;;1.92;1.05;;;22.20;50.10;;;;;;5074579;28;20701;-68
2022/09/01 03:53:27;;;;;;;1.17;1.08;;;22.20;50.00;;;;;;5075480;28;20199;-68
2022/09/01 03:55:54;;;;;;;0.82;0.82;;;22.20;50.20;;;;;;5074677;28;20261;-67
2022/09/01 03:58:19;;;;;;;2.03;1.00;;;22.20;50.00;;;;;;5075404;28;20171;-69
2022/09/01 04:00:48;;;;;;;1.45;1.00;;;22.20;50.00;;;;;;5075062;28;20210;-68
2022/09/01 04:03:15;;;;;;;1.27;1.00;;;22.20;49.90;;;;;;5074649;28;20253;-68
2022/09/01 04:05:42;;;;;;;1.15;0.85;;;22.20;49.90;;;;;;5075367;28;20201;-67
2022/09/01 04:08:10;;;;;;;1.45;1.10;;;22.20;50.00;;;;;;5075198;28;20170;-67
2022/09/01 04:10:48;;;;;;;1.20;1.10;;;22.20;50.00;;;;;;5074615;28;20181;-67
2022/09/01 04:13:18;;;;;;;2.47;1.20;;;22.20;50.00;;;;;;5075233;28;20256;-68
2022/09/01 04:15:44;;;;;;;1.23;1.02;;;22.20;49.90;;;;;;5075006;28;20182;-68
2022/09/01 04:18:11;;;;;;;2.10;1.27;;;22.20;50.00;;;;;;5074628;28;20178;-68
2022/09/01 04:20:49;;;;;;;1.23;0.90;;;22.20;49.90;;;;;;5075171;28;20235;-68
2022/09/01 04:23:25;;;;;;;1.83;1.13;;;22.20;50.00;;;;;;5072796;28;20189;-68
2022/09/01 04:25:52;;;;;;;2.58;1.00;;;22.10;49.90;;;;;;5070275;28;20182;-68
2022/09/01 04:28:21;;;;;;;1.50;0.90;;;22.10;49.90;;;;;;5075210;28;20170;-68
2022/09/01 04:30:54;;;;;;;0.80;0.80;;;22.10;49.90;;;;;;5070964;28;20244;-68
2022/09/01 04:33:37;;;;;;;0.80;0.80;;;22.10;49.80;;;;;;5074386;28;20171;-67
2022/09/01 04:36:12;;;;;;;1.33;1.00;;;22.10;49.90;;;;;;5071273;28;20305;-68
2022/09/01 04:38:38;;;;;;;1.45;1.00;;;22.10;49.80;;;;;;5073946;28;20177;-68
2022/09/01 04:41:06;;;;;;;1.58;0.70;;;22.10;49.70;;;;;;5074166;28;20577;-68
2022/09/01 04:43:33;;;;;;;2.35;0.95;;;22.10;49.80;;;;;;5074418;28;20644;-69
2022/09/01 04:45:59;;;;;;;1.25;1.15;;;22.10;49.70;;;;;;5073694;28;20236;-69
2022/09/01 04:48:25;;;;;;;0.80;0.80;;;22.10;49.70;;;;;;5074485;28;20170;-68
2022/09/01 04:50:51;;;;;;;2.22;0.73;;;22.10;49.80;;;;;;5074639;28;20173;-68
2022/09/01 04:53:17;;;;;;;1.10;1.00;;;22.10;49.70;;;;;;5074157;28;20257;-67
2022/09/01 04:55:43;;;;;;;2.00;1.00;;;22.10;49.80;;;;;;5074478;28;20647;-68
2022/09/01 04:58:09;;;;;;;2.83;1.17;;;22.10;49.80;;;;;;5074358;28;20170;-68
2022/09/01 05:00:35;;;;;;;0.73;0.70;;;22.10;49.80;;;;;;5073335;28;20210;-69
2022/09/01 05:03:03;;;;;;;2.00;0.93;;;22.10;49.60;;;;;;5073973;28;20162;-68
2022/09/01 05:05:35;;;;;;;0.90;0.80;;;22.10;49.80;;;;;;5074175;28;20185;-68
2022/09/01 05:08:01;;;;;;;1.50;1.00;;;22.00;49.70;;;;;;5073427;28;20189;-67
2022/09/01 05:10:28;;;;;;;1.80;1.05;;;22.00;49.70;;;;;;5074226;28;20620;-67
2022/09/01 05:12:56;;;;;;;1.50;0.80;;;22.00;49.70;;;;;;5073951;28;20590;-67
2022/09/01 05:15:21;;;;;;;1.92;1.05;;;22.00;49.70;;;;;;5069660;28;20178;-68
2022/09/01 05:17:48;;;;;;;1.38;0.88;;;22.00;49.50;;;;;;5073876;28;20231;-68
2022/09/01 05:20:13;;;;;;;0.82;0.82;;;22.00;49.60;;;;;;5073016;28;20699;-68
2022/09/01 05:22:39;;;;;;;1.13;0.95;;;22.00;49.60;;;;;;5074092;28;20254;-68
2022/09/01 05:25:12;;;;;;;0.98;0.90;;;22.00;49.70;;;;;;5073424;28;20684;-68
2022/09/01 05:27:48;;;;;;;1.42;1.00;;;22.00;49.60;;;;;;5056333;28;20163;-67
2022/09/01 05:30:15;;;;;;;1.63;1.05;;;22.00;49.50;;;;;;5073670;28;20548;-67
2022/09/01 05:32:42;;;;;;;1.02;0.93;;;22.00;49.50;;;;;;5073552;28;20202;-67
2022/09/01 05:35:08;;;;;;;1.02;0.90;;;22.00;49.50;;;;;;5072868;28;20186;-68
2022/09/01 05:37:37;;;;;;;1.60;0.85;;;22.00;49.60;;;;;;5073582;28;20170;-68
2022/09/01 05:40:06;;;;;;;1.88;1.10;;;22.00;49.60;;;;;;5073489;28;20190;-68
2022/09/01 05:42:32;;;;;;;1.92;0.93;;;22.00;49.60;;;;;;5072670;28;20257;-69
2022/09/01 05:44:59;;;;;;;1.17;1.00;;;22.00;49.70;;;;;;5073205;28;20212;-68
2022/09/01 05:47:25;;;;;;;1.45;0.75;;;22.00;49.70;;;;;;5072741;28;20257;-69
2022/09/01 05:49:52;;;;;;;2.05;0.90;;;22.00;49.60;;;;;;5072579;28;20174;-67
2022/09/01 05:52:19;;;;;;;3.47;1.02;;;22.00;49.50;;;;;;5073419;28;20183;-68
2022/09/01 05:54:46;;;;;;;2.17;1.10;;;22.00;49.60;;;;;;5073033;28;20185;-68
2022/09/01 05:57:12;;;;;;;6.72;1.20;;;22.00;49.50;;;;;;5072586;28;20232;-67
2022/09/01 05:59:40;;;;;;;2.60;1.20;;;22.00;49.40;;;;;;5073244;28;20540;-68
2022/09/01 06:02:08;;;;;;;2.35;1.20;;;22.00;49.30;;;;;;5070267;28;20175;-68
2022/09/01 06:04:34;;;;;;;2.17;1.20;;;21.90;49.40;;;;;;5072453;28;20185;-68
2022/09/01 06:07:00;;;;;;;5.63;1.42;;;21.90;49.30;;;;;;5079470;28;20185;-66
2022/09/01 06:09:25;;;;;;;3.13;1.23;;;22.00;49.60;;;;;;5072559;28;20257;-67
2022/09/01 06:11:53;;;;;;;1.88;1.00;;;22.00;49.70;;;;;;5072532;28;20668;-67
2022/09/01 06:14:19;;;;;;;2.22;0.98;;;22.00;49.70;;;;;;5070218;28;20602;-68
2022/09/01 06:16:46;;;;;;;1.73;1.00;;;22.00;49.80;;;;;;5071992;28;20210;-68
2022/09/01 06:19:11;;;;;;;3.17;1.00;;;22.00;49.70;;;;;;5072507;28;20645;-67
2022/09/01 06:21:40;;;;;;;1.98;1.00;;;22.00;49.70;;;;;;5072630;28;20181;-67
2022/09/01 06:24:05;;;;;;;1.10;1.00;;;22.00;49.80;;;;;;5071537;28;20575;-69
2022/09/01 06:26:33;;;;;;;2.60;1.10;;;22.00;49.80;;;;;;5072711;28;20163;-68
2022/09/01 06:29:08;;;;;;;1.10;1.00;;;22.00;49.80;;;;;;5072627;28;20175;-67
2022/09/01 06:31:37;;;;;;;2.58;0.98;;;22.00;49.80;;;;;;5069079;28;20308;-67
2022/09/01 06:34:04;;;;;;;4.28;1.50;;;22.00;49.60;;;;;;5055279;28;20640;-67
2022/09/01 06:36:31;;;;;;;1.67;1.08;;;22.10;49.60;;;;;;5072597;28;20177;-69
2022/09/01 06:38:57;;;;;;;1.95;0.90;;;22.10;49.50;;;;;;5071536;28;20536;-67
2022/09/01 06:41:22;;;;;;;5.82;1.20;;;22.10;49.40;;;;;;5072322;28;20692;-66
2022/09/01 06:43:49;;;;;;;3.47;1.17;;;22.10;49.40;;;;;;5072219;28;20201;-67
2022/09/01 06:46:18;;;;;;;2.78;1.20;;;22.10;49.40;;;;;;5071976;28;20181;-68
2022/09/01 06:48:47;;;;;;;5.80;1.17;;;22.10;49.30;;;;;;5072183;28;20177;-68
2022/09/01 06:51:14;;;;;;;1.40;1.10;;;22.20;49.30;;;;;;5072442;28;20178;-68
2022/09/01 06:53:41;;;;;;;5.97;1.25;;;22.20;49.20;;;;;;5071664;28;20178;-67
2022/09/01 06:56:11;;;;;;;1.05;0.95;;;22.30;49.10;;;;;;5071848;28;20175;-68
2022/09/01 06:58:41;;;;;;;2.33;1.10;;;22.30;49.10;;;;;;5072456;28;20179;-69
2022/09/01 07:01:14;;;;;;;0.93;0.80;;;22.30;49.30;;;;;;5068251;28;20209;-69
2022/09/01 07:03:43;;;;;;;5.80;0.93;;;22.30;49.20;;;;;;5072229;28;20621;-67
2022/09/01 07:06:09;;;;;;;3.08;1.00;;;22.30;49.20;;;;;;5068069;28;20636;-67
2022/09/01 07:08:38;;;;;;;7.47;1.70;;;22.30;49.10;;;;;;5071973;28;20181;-67
2022/09/01 07:11:07;;;;;;;2.03;0.98;;;22.30;49.20;;;;;;5072199;28;20236;-67
2022/09/01 07:13:33;;;;;;;2.70;1.10;;;22.20;49.30;;;;;;5071470;28;20186;-67
2022/09/01 07:15:59;;;;;;;6.60;1.00;;;22.20;49.40;;;;;;5072225;28;20175;-67
2022/09/01 07:18:27;;;;;;;3.35;1.13;;;22.20;49.40;;;;;;5072035;28;20288;-68
2022/09/01 07:20:53;;;;;;;1.48;1.00;;;22.20;49.30;;;;;;5070918;28;20724;-68
2022/09/01 07:23:19;;;;;;;3.03;1.30;;;22.20;49.40;;;;;;5071843;28;20258;-67
2022/09/01 07:25:46;;;;;;;1.13;0.85;;;22.20;49.40;;;;;;5071895;28;20166;-67
2022/09/01 07:28:12;;;;;;;1.58;0.90;;;22.20;49.40;;;;;;5071645;28;20225;-67
2022/09/01 07:30:43;;;;;;;1.92;0.90;;;22.30;49.40;;;;;;5072120;28;20262;-67
2022/09/01 07:33:10;;;;;;;1.60;1.15;;;22.30;49.40;;;;;;5071963;28;20258;-67
2022/09/01 07:35:37;;;;;;;0.88;0.80;;;22.30;49.40;;;;;;5071386;28;20178;-67
2022/09/01 07:38:04;;;;;;;1.42;0.98;;;22.30;49.30;;;;;;5071737;28;20565;-67
2022/09/01 07:40:30;;;;;;;1.27;1.10;;;22.40;49.30;;;;;;5068254;28;20198;-68
2022/09/01 07:42:59;;;;;;;3.83;1.33;;;22.40;50.00;;;;;;5070903;28;20200;-67
2022/09/01 07:45:26;;;;;;;2.58;0.90;;;22.40;49.30;;;;;;5071854;28;20236;-68
2022/09/01 07:47:52;;;;;;;0.82;0.80;;;22.40;49.40;;;;;;5071618;28;20250;-67
2022/09/01 07:50:18;;;;;;;1.33;0.80;;;22.40;49.40;;;;;;5071419;28;20213;-67
2022/09/01 07:52:48;;;;;;;1.00;0.90;;;22.50;49.40;;;;;;5071812;28;20179;-67
2022/09/01 07:55:14;;;;;;;0.95;0.70;;;22.50;49.30;;;;;;5071215;28;20174;-67
2022/09/01 07:57:41;;;;;;;2.50;1.10;;;22.50;49.20;;;;;;5071867;28;20566;-67
2022/09/01 08:00:08;;;;;;;1.13;0.80;;;22.50;49.10;;;;;;5071480;28;20676;-68
2022/09/01 08:02:34;;;;;;;1.20;0.93;;;22.60;49.10;;;;;;5071107;28;20181;-67
2022/09/01 08:05:00;;;;;;;0.77;0.77;;;22.60;49.20;;;;;;5071725;28;20249;-67
2022/09/01 08:07:25;;;;;;;1.75;0.93;;;22.60;49.10;;;;;;5071858;28;20251;-67
2022/09/01 08:09:51;;;;;;;2.05;0.93;;;22.60;49.20;;;;;;5071756;28;20518;-66
2022/09/01 08:12:17;;;;;;;1.27;0.82;;;22.60;49.10;;;;;;5075153;28;20647;-67
2022/09/01 08:14:42;;;;;;;2.03;0.90;;;22.60;49.10;;;;;;5075112;28;20232;-67
2022/09/01 08:17:07;;;;;;;1.73;1.10;;;22.70;49.20;;;;;;5074581;28;20167;-67
2022/09/01 08:19:33;;;;;;;0.90;0.80;;;22.60;49.10;;;;;;5074962;28;20536;-67
2022/09/01 08:22:00;;;;;;;0.90;0.80;;;22.70;49.10;;;;;;5074768;28;20644;-67
2022/09/01 08:24:25;;;;;;;2.30;0.80;;;22.70;49.00;;;;;;5053040;28;20214;-67
2022/09/01 08:26:51;;;;;;;0.93;0.90;;;22.70;48.90;;;;;;5054720;28;20180;-67
2022/09/01 08:29:16;;;;;;;1.63;0.88;;;22.70;49.00;;;;;;5054862;28;20175;-67
2022/09/01 08:31:42;;;;;;;1.02;0.93;;;22.70;48.90;;;;;;5054027;28;20167;-67
2022/09/01 08:34:11;;;;;;;2.08;1.13;;;22.80;49.20;;;;;;5054884;28;20178;-67
2022/09/01 08:36:36;;;;;;;1.08;0.98;;;22.80;49.00;;;;;;5054796;28;20182;-67
2022/09/01 08:39:02;;;;;;;2.83;0.80;;;22.80;49.00;;;;;;5053625;28;20171;-67
2022/09/01 08:41:34;;;;;;;0.90;0.90;;;22.80;49.00;;;;;;5054622;28;20265;-67
2022/09/01 08:44:21;;;;;;;1.15;0.68;;;22.80;48.90;;;;;;5054681;28;20159;-67
2022/09/01 08:46:46;;;;;;;4.13;1.23;;;22.80;48.90;;;;;;5052488;28;20171;-67
2022/09/01 08:49:19;;;;;;;0.88;0.80;;;22.90;48.90;;;;;;5053495;28;20167;-67
2022/09/01 08:51:57;;;;;;;1.58;0.75;;;22.90;48.90;;;;;;5052262;28;20701;-66
2022/09/01 08:54:38;;;;;;;2.30;0.80;;;22.90;48.90;;;;;;5049748;28;20227;-67
2022/09/01 08:57:07;;;;;;;1.35;0.55;;;23.00;49.00;;;;;;5052984;28;20187;-67
2022/09/01 08:59:32;;;;;;;1.50;0.90;;;22.90;48.80;;;;;;5052570;28;20223;-67
2022/09/01 09:02:18;;;;;;;1.65;0.80;;;23.00;48.90;;;;;;5052935;28;20664;-67
2022/09/01 09:04:56;;;;;;;1.35;0.88;;;23.00;48.90;;;;;;5051449;28;20168;-67
2022/09/01 09:07:45;;;;;;;1.73;0.80;;;23.00;48.90;;;;;;5049405;28;20539;-66
2022/09/01 09:10:25;;;;;;;1.48;0.82;;;23.00;48.80;;;;;;5051384;28;20172;-67
2022/09/01 09:13:35;;;;;;;1.20;0.70;;;23.10;48.80;;;;;;5049217;28;20207;-67
2022/09/01 09:16:12;;;;;;;2.67;0.90;;;23.10;48.80;;;;;;5053929;28;20250;-67
2022/09/01 09:18:53;;;;;;;1.75;0.90;;;23.10;48.70;;;;;;5052953;28;20217;-67
2022/09/01 09:21:34;;;;;;;1.00;0.77;;;23.10;48.70;;;;;;5051147;28;20199;-67
2022/09/01 09:24:17;;;;;;;1.58;0.93;;;23.10;48.70;;;;;;5050056;28;20218;-67
2022/09/01 09:26:48;;;;;;;1.15;0.60;;;23.10;48.60;;;;;;5048809;28;20167;-67
2022/09/01 09:29:13;;;;;;;1.05;0.70;;;23.20;48.60;;;;;;5054174;28;20167;-66
2022/09/01 09:31:42;;;;;;;0.68;0.60;;;23.20;48.60;;;;;;5053643;28;20236;-65
2022/09/01 09:34:41;;;;;;;0.90;0.80;;;23.20;48.50;;;;;;5051966;28;20266;-66
2022/09/01 09:37:16;;;;;;;1.77;0.52;;;23.20;48.50;;;;;;5020235;28;20184;-67
2022/09/01 09:39:42;;;;;;;1.05;0.80;;;23.20;48.40;;;;;;5051007;28;20305;-67
2022/09/01 09:42:12;;;;;;;0.65;0.65;;;23.30;48.40;;;;;;5053011;28;20246;-66
2022/09/01 09:44:42;;;;;;;1.02;0.80;;;23.30;48.40;;;;;;5053505;28;20258;-67
2022/09/01 09:47:09;;;;;;;1.27;0.73;;;23.30;48.30;;;;;;5049582;28;20167;-66
2022/09/01 09:49:35;;;;;;;0.80;0.80;;;23.30;48.30;;;;;;5051670;28;20164;-65
2022/09/01 09:52:03;;;;;;;1.70;0.90;;;23.40;48.20;;;;;;5053353;28;20553;-66
2022/09/01 09:54:30;;;;;;;1.30;0.80;;;23.40;48.20;;;;;;5049245;28;20171;-66
2022/09/01 09:57:16;;;;;;;1.05;0.65;;;23.40;48.20;;;;;;5052207;28;20178;-66
2022/09/01 09:59:44;;;;;;;1.38;0.57;;;23.40;48.10;;;;;;5051546;28;20260;-66
2022/09/01 10:02:23;;;;;;;2.53;0.90;;;23.40;48.00;;;;;;5052424;28;20652;-66
2022/09/01 10:04:49;;;;;;;0.80;0.70;;;23.40;48.00;;;;;;5049369;28;20250;-66
2022/09/01 10:07:38;;;;;;;1.75;0.70;;;23.50;47.90;;;;;;5053207;28;20234;-65
2022/09/01 10:10:07;;;;;;;0.60;0.60;;;23.50;47.90;;;;;;5052013;28;20350;-65
2022/09/01 10:12:32;;;;;;;0.55;0.55;;;23.50;47.80;;;;;;5051734;28;20611;-66
2022/09/01 10:15:06;;;;;;;1.38;0.80;;;23.50;47.80;;;;;;5052645;28;20638;-67
2022/09/01 10:17:41;;;;;;;0.75;0.65;;;23.50;47.60;;;;;;5048640;28;20167;-66
2022/09/01 10:20:11;;;;;;;0.52;0.52;;;23.50;47.60;;;;;;5051225;28;20556;-66
2022/09/01 10:22:37;;;;;;;0.90;0.65;;;23.60;47.50;;;;;;5051309;28;20505;-66
2022/09/01 10:25:07;;;;;;;0.65;0.60;;;23.60;47.60;;;;;;5051157;28;20223;-66
2022/09/01 10:27:35;;;;;;;0.77;0.45;;;23.60;47.40;;;;;;5051428;28;20575;-66
2022/09/01 10:30:09;;;;;;;0.88;0.60;;;23.60;47.30;;;;;;5051865;28;20202;-65
2022/09/01 10:32:45;;;;;;;2.00;0.70;;;23.60;47.30;;;;;;5052252;28;20539;-66
2022/09/01 10:35:22;;;;;;;1.08;0.73;;;23.60;47.20;;;;;;5035075;28;20653;-66
2022/09/01 10:37:48;;;;;;;1.23;0.63;;;23.70;47.10;;;;;;5050563;28;20167;-66
2022/09/01 10:40:20;;;;;;;1.27;0.77;;;23.70;47.10;;;;;;5047243;28;20209;-67
2022/09/01 10:42:54;;;;;;;2.17;1.00;;;23.70;47.10;;;;;;5050873;28;20167;-66
2022/09/01 10:45:36;;;;;;;1.60;0.85;;;23.70;47.00;;;;;;5048573;28;20570;-69
2022/09/01 10:48:24;;;;;;;1.98;0.90;;;23.70;47.00;;;;;;5051158;28;20162;-67
2022/09/01 10:51:09;;;;;;;1.42;0.98;;;23.70;46.50;;;;;;5048827;28;20159;-66
2022/09/01 10:53:34;;;;;;;2.13;0.95;;;23.70;46.80;;;;;;5049195;28;20195;-66
2022/09/01 10:56:21;;;;;;;3.10;1.02;;;23.60;46.70;;;;;;5055846;28;20209;-66
2022/09/01 10:58:47;;;;;;;3.05;1.15;;;23.60;46.80;;;;;;5051664;28;20195;-66
2022/09/01 11:01:13;;;;;;;1.48;0.73;;;23.50;46.80;;;;;;5052246;28;20557;-66
2022/09/01 11:03:38;;;;;;;2.88;0.80;;;23.50;47.00;;;;;;5052225;28;20173;-65
2022/09/01 11:06:04;;;;;;;1.48;0.70;;;23.50;47.00;;;;;;5050324;28;20176;-66
2022/09/01 11:08:29;;;;;;;2.15;0.68;;;23.50;47.00;;;;;;5052346;28;20592;-66
2022/09/01 11:11:03;;;;;;;1.70;0.80;;;23.50;47.10;;;;;;5052114;28;20174;-65
2022/09/01 11:13:30;;;;;;;3.13;0.77;;;23.40;47.10;;;;;;5050401;28;20177;-64
2022/09/01 11:15:57;;;;;;;2.08;0.93;;;23.40;47.10;;;;;;5050768;28;20640;-65
2022/09/01 11:18:26;;;;;;;4.55;0.93;;;23.50;47.00;;;;;;5050562;28;20175;-65
2022/09/01 11:20:52;;;;;;;1.95;0.80;;;23.50;47.00;;;;;;5051154;28;20234;-65
2022/09/01 11:23:25;;;;;;;2.45;0.88;;;23.50;47.00;;;;;;5052933;28;20182;-66
2022/09/01 11:25:52;;;;;;;1.75;0.80;;;23.40;47.00;;;;;;5072089;28;20178;-65
2022/09/01 11:28:26;;;;;;;1.02;0.80;;;23.50;47.00;;;;;;5053621;28;20536;-65
2022/09/01 11:31:09;;;;;;;1.42;0.70;;;23.50;46.80;;;;;;5071756;28;20170;-65
2022/09/01 11:33:43;;;;;;;2.47;0.73;;;23.50;47.00;;;;;;5071393;28;20185;-66
2022/09/01 11:36:27;;;;;;;0.95;0.75;;;23.50;46.80;;;;;;5071740;28;20647;-66
2022/09/01 11:39:12;;;;;;;1.05;0.65;;;23.50;46.80;;;;;;5068113;28;20261;-66
2022/09/01 11:42:00;;;;;;;2.55;0.70;;;23.50;47.00;;;;;;5053768;28;20237;-67
2022/09/01 11:44:58;;;;;;;1.33;0.63;;;23.50;46.90;;;;;;5069532;28;20167;-67
2022/09/01 11:47:26;;;;;;;2.72;0.90;;;23.50;46.40;;;;;;5030563;28;20269;-67
2022/09/01 11:49:53;;;;;;;1.85;1.00;;;23.50;46.40;;;;;;5057424;28;20175;-67
2022/09/01 11:52:20;;;;;;;2.22;0.88;;;23.50;46.30;;;;;;5075491;28;20633;-66
2022/09/01 11:54:45;;;;;;;0.82;0.70;;;23.50;46.30;;;;;;5074773;28;20170;-65
2022/09/01 11:57:27;;;;;;;4.90;0.80;;;23.50;46.40;;;;;;5074849;28;20180;-66
2022/09/01 11:59:53;;;;;;;3.20;0.95;;;23.60;46.50;;;;;;5075448;28;20202;-67
2022/09/01 12:02:33;;;;;;;3.22;0.85;;;23.60;46.50;;;;;;5056877;28;20240;-66
2022/09/01 12:04:59;;;;;;;2.75;0.70;;;23.60;46.30;;;;;;5075469;28;20174;-60
2022/09/01 12:07:43;;;;;;;4.05;0.90;;;23.60;46.30;;;;;;5057645;28;20179;-60
2022/09/01 12:10:32;;;;;;;1.90;0.95;;;23.50;46.10;;;;;;5074324;28;20640;-61
2022/09/01 12:13:10;;;;;;;3.25;0.98;;;23.50;46.40;;;;;;5071736;28;20163;-60
2022/09/01 12:15:41;;;;;;;3.15;0.93;;;23.50;46.40;;;;;;5074577;28;20251;-60
2022/09/01 12:18:26;;;;;;;3.42;0.80;;;23.40;46.50;;;;;;5074907;28;20659;-60
2022/09/01 12:20:56;;;;;;;1.88;0.80;;;23.40;46.70;;;;;;5074388;28;20729;-60
2022/09/01 12:23:24;;;;;;;3.95;1.02;;;23.40;46.90;;;;;;5074077;28;20694;-59
2022/09/01 12:25:52;;;;;;;1.52;0.70;;;23.40;46.80;;;;;;5075039;28;20186;-59
2022/09/01 12:28:17;;;;;;;3.22;1.10;;;23.40;46.80;;;;;;5057445;28;20192;-59
2022/09/01 12:30:43;;;;;;;1.45;0.57;;;23.40;46.70;;;;;;5056598;28;20257;-59
2022/09/01 12:33:10;;;;;;;2.75;1.27;;;23.40;46.80;;;;;;5075189;28;20219;-59
2022/09/01 12:35:35;;;;;;;2.17;0.98;;;23.40;46.70;;;;;;5056872;28;20171;-60
2022/09/01 12:38:19;;;;;;;1.13;0.75;;;23.40;46.70;;;;;;5056202;28;20177;-60
2022/09/01 12:40:52;;;;;;;2.15;0.65;;;23.40;46.90;;;;;;5072759;28;20206;-61
2022/09/01 12:43:31;;;;;;;1.95;1.08;;;23.40;47.10;;;;;;5056473;28;20167;-61
2022/09/01 12:46:00;;;;;;;1.02;0.88;;;23.40;47.10;;;;;;5074298;28;20174;-60
2022/09/01 12:48:33;;;;;;;1.95;0.80;;;23.40;47.00;;;;;;5074808;28;20171;-60
2022/09/01 12:51:22;;;;;;;1.27;0.73;;;23.40;47.10;;;;;;5073592;28;20269;-60
2022/09/01 12:53:55;;;;;;;2.38;0.70;;;23.40;47.10;;;;;;5066305;28;20193;-60
2022/09/01 12:56:23;;;;;;;1.55;0.70;;;23.40;47.00;;;;;;5074365;28;20174;-60
2022/09/01 12:58:51;;;;;;;2.80;1.00;;;23.30;46.90;;;;;;5056098;28;20232;-60
2022/09/01 13:01:27;;;;;;;1.40;0.90;;;23.30;46.90;;;;;;5056758;28;20210;-60
2022/09/01 13:04:15;;;;;;;2.70;0.93;;;23.30;46.90;;;;;;5074503;28;20641;-60